地図

経路データ

SID SEASON NUMBER BASIN SUBBASIN NAME ISO_TIME NATURE LAT LON WMO_WIND WMO_PRES WMO_AGENCY TRACK_TYPE DIST2LAND LANDFALL IFLAG USA_AGENCY USA_ATCF_ID USA_LAT USA_LON USA_RECORD USA_STATUS USA_WIND USA_PRES USA_SSHS USA_R34_NE USA_R34_SE USA_R34_SW USA_R34_NW USA_R50_NE USA_R50_SE USA_R50_SW USA_R50_NW USA_R64_NE USA_R64_SE USA_R64_SW USA_R64_NW USA_POCI USA_ROCI USA_RMW USA_EYE TOKYO_LAT TOKYO_LON TOKYO_GRADE TOKYO_WIND TOKYO_PRES TOKYO_R50_DIR TOKYO_R50_LONG TOKYO_R50_SHORT TOKYO_R30_DIR TOKYO_R30_LONG TOKYO_R30_SHORT TOKYO_LAND CMA_LAT CMA_LON CMA_CAT CMA_WIND CMA_PRES HKO_LAT HKO_LON HKO_CAT HKO_WIND HKO_PRES NEWDELHI_LAT NEWDELHI_LON NEWDELHI_GRADE NEWDELHI_WIND NEWDELHI_PRES NEWDELHI_CI NEWDELHI_DP NEWDELHI_POCI REUNION_LAT REUNION_LON REUNION_TYPE REUNION_WIND REUNION_PRES REUNION_TNUM REUNION_CI REUNION_RMW REUNION_R34_NE REUNION_R34_SE REUNION_R34_SW REUNION_R34_NW REUNION_R50_NE REUNION_R50_SE REUNION_R50_SW REUNION_R50_NW REUNION_R64_NE REUNION_R64_SE REUNION_R64_SW REUNION_R64_NW BOM_LAT BOM_LON BOM_TYPE BOM_WIND BOM_PRES BOM_TNUM BOM_CI BOM_RMW BOM_R34_NE BOM_R34_SE BOM_R34_SW BOM_R34_NW BOM_R50_NE BOM_R50_SE BOM_R50_SW BOM_R50_NW BOM_R64_NE BOM_R64_SE BOM_R64_SW BOM_R64_NW BOM_ROCI BOM_POCI BOM_EYE BOM_POS_METHOD BOM_PRES_METHOD NADI_LAT NADI_LON NADI_CAT NADI_WIND NADI_PRES WELLINGTON_LAT WELLINGTON_LON WELLINGTON_WIND WELLINGTON_PRES DS824_LAT DS824_LON DS824_STAGE DS824_WIND DS824_PRES TD9636_LAT TD9636_LON TD9636_STAGE TD9636_WIND TD9636_PRES TD9635_LAT TD9635_LON TD9635_WIND TD9635_PRES TD9635_ROCI NEUMANN_LAT NEUMANN_LON NEUMANN_CLASS NEUMANN_WIND NEUMANN_PRES MLC_LAT MLC_LON MLC_CLASS MLC_WIND MLC_PRES USA_GUST BOM_GUST BOM_GUST_PER REUNION_GUST REUNION_GUST_PER USA_SEAHGT USA_SEARAD_NE USA_SEARAD_SE USA_SEARAD_SW USA_SEARAD_NW STORM_SPEED STORM_DIR
2012046N08130 2012 11 WP MM NOT_NAMED 2012-02-14 18:00:00 TS 7.90000 130.200 main 397 307 __O___________ -1 7.90000 130.200 1 31 1004 22 299
2012046N08130 2012 11 WP MM NOT_NAMED 2012-02-14 21:00:00 TS 8.42821 129.236 main 297 230 __P___________ -1 8.42821 129.236 1 31 1004 20 299
2012046N08130 2012 11 WP MM NOT_NAMED 2012-02-15 00:00:00 TS 8.90000 128.400 main 230 170 __O___________ -1 8.90000 128.400 1 31 1004 17 300
2012046N08130 2012 11 WP MM NOT_NAMED 2012-02-15 03:00:00 TS 9.27955 127.770 main 174 118 __P___________ -1 9.27955 127.770 1 31 1004 14 301
2012046N08130 2012 11 WP MM NOT_NAMED 2012-02-15 06:00:00 TS 9.60000 127.200 main 118 70 __O___________ -1 9.60000 127.200 1 31 1004 14 296
2012046N08130 2012 11 WP MM NOT_NAMED 2012-02-15 09:00:00 TS 9.89249 126.507 main 70 55 __P___________ -1 9.89249 126.507 1 31 1005 15 294
2012046N08130 2012 11 WP MM NOT_NAMED 2012-02-15 12:00:00 TS 10.2000 125.800 main 55 0 __O___________ -1 10.2000 125.800 1 31 1006 15 301
2012046N08130 2012 11 WP MM NOT_NAMED 2012-02-15 15:00:00 TS 10.6822 125.158 main 11 0 __P___________ -1 10.6822 125.158 1 31 1006 15 302
2012046N08130 2012 11 WP MM NOT_NAMED 2012-02-15 18:00:00 TS 11.0000 124.500 main 0 0 __O___________ -1 11.0000 124.500 1 31 1006 14 277
2012046N08130 2012 11 WP MM NOT_NAMED 2012-02-15 21:00:00 TS 10.8625 123.749 main 15 0 __P___________ -1 10.8625 123.749 1 28 1006 16 251
2012046N08130 2012 11 WP MM NOT_NAMED 2012-02-16 00:00:00 TS 10.5000 123.000 main 0 0 __O___________ -1 10.5000 123.000 1 25 1006 16 242
2012046N08130 2012 11 WP MM NOT_NAMED 2012-02-16 03:00:00 TS 10.1348 122.335 main 31 31 __P___________ -1 10.1348 122.335 1 25 1006 15 241
2012046N08130 2012 11 WP MM NOT_NAMED 2012-02-16 06:00:00 TS 9.80000 121.700 main 70 70 __O___________ -1 9.80000 121.700 1 25 1006 14 247
2012046N08130 2012 11 WP MM NOT_NAMED 2012-02-16 09:00:00 TS 9.59725 121.073 main 125 125 __P___________ -1 9.59725 121.073 1 25 1006 13 257
2012046N08130 2012 11 WP MM NOT_NAMED 2012-02-16 12:00:00 TS 9.50000 120.400 main 133 86 __O___________ -1 9.50000 120.400 1 25 1006 14 265
2012046N08130 2012 11 WP MM NOT_NAMED 2012-02-16 15:00:00 TS 9.47736 119.638 main 80 15 __P___________ -1 9.47736 119.638 1 25 1006 16 270
2012046N08130 2012 11 WP MM NOT_NAMED 2012-02-16 18:00:00 TS 9.50000 118.800 main 15 0 __O___________ -1 9.50000 118.800 1 25 1006 17 270
2012046N08130 2012 11 WP MM NOT_NAMED 2012-02-16 21:00:00 TS 9.47754 117.892 main 31 31 __P___________ -1 9.47754 117.892 1 28 1006 18 273
2012046N08130 2012 11 WP MM NOT_NAMED 2012-02-17 00:00:00 TS 9.60000 116.960 main 94 94 O_O___________ jtwc_wp WP012012 10.0000 116.800 DB 20 1007 -3 9.50000 117.000 1 31 1006 17 280
2012046N08130 2012 11 WP MM NOT_NAMED 2012-02-17 03:00:00 TS 9.75567 116.239 main 174 174 P_P___________ WP012012 9.96756 116.275 DB 20 1007 -3 9.64973 116.220 1 31 1005 14 280
2012046N08130 2012 11 WP MM NOT_NAMED 2012-02-17 06:00:00 TS 9.84286 115.586 main 230 230 O_O___________ jtwc_wp WP012012 9.90000 115.700 DB 20 1007 -3 1008 200 45 9.80000 115.500 1 31 1004 13 272
2012046N08130 2012 11 WP MM NOT_NAMED 2012-02-17 09:00:00 TS 9.79629 114.899 main 295 295 P_P___________ WP012012 9.78504 115.050 DB 20 1007 -3 1008 200 45 9.80754 114.747 1 31 1004 13 266
2012046N08130 2012 11 WP MM NOT_NAMED 2012-02-17 12:00:00 TS 9.75000 114.250 main 355 351 O_O___________ jtwc_wp WP012012 9.70000 114.400 DB 20 1007 -3 1008 200 45 9.80000 114.100 1 31 1004 12 271
2012046N08130 2012 11 WP MM NOT_NAMED 2012-02-17 15:00:00 TS 9.80992 113.708 main 417 417 P_P___________ WP012012 9.73498 113.798 DB 20 1007 -3 1008 200 45 9.88485 113.618 1 31 1004 9 279
2012046N08130 2012 11 WP MM NOT_NAMED 2012-02-17 18:00:00 TS 9.90000 113.300 main 462 456 O_O___________ jtwc_wp WP012012 9.80000 113.300 DB 20 1007 -3 1008 200 45 10.0000 113.300 1 31 1004 7 282
2012046N08130 2012 11 WP MM NOT_NAMED 2012-02-17 21:00:00 TS 9.95741 113.022 main 456 446 P_P___________ WP012012 9.80739 112.940 DB 20 1007 -3 1008 200 45 10.1074 113.105 1 31 1004 5 280
2012046N08130 2012 11 WP MM NOT_NAMED 2012-02-18 00:00:00 TS 9.97778 112.844 main 437 427 O_OO__________ jtwc_wp WP012012 9.80000 112.700 DB 20 1007 -3 1008 200 45 10.2000 113.000 1 31 1004 9.80000 112.800 TD 25 1006 3 273
2012046N08130 2012 11 WP MM NOT_NAMED 2012-02-18 03:00:00 TS 9.97696 112.685 main 427 417 P_PP__________ WP012012 9.79242 112.445 DB 20 1007 -3 1008 200 45 10.2500 112.892 1 31 1004 9.80000 112.750 TD 27 1005 2 271
2012046N08130 2012 11 WP MM NOT_NAMED 2012-02-18 06:00:00 TS 9.98182 112.627 main 417 417 O_OO__________ jtwc_wp WP012012 9.80000 112.400 DB 20 1007 -3 1008 200 45 10.3000 112.800 1 31 1004 9.80000 112.700 TD 30 1004 1 45
2012046N08130 2012 11 WP MM NOT_NAMED 2012-02-18 09:00:00 TS 10.0168 112.724 main 427 427 P_PP__________ WP012012 9.85027 112.822 DB 20 1007 -3 1008 162 45 10.4000 112.700 1 31 1004 9.80000 112.650 TD 30 1004 2 63
2012046N08130 2012 11 WP MM NOT_NAMED 2012-02-18 12:00:00 TS 10.0667 112.800 main 432 422 O_OO__________ jtwc_wp WP012012 9.90000 113.200 DB 20 1007 -3 1008 125 45 10.5000 112.600 1 31 1004 9.80000 112.600 TD 30 1004 1 321
2012046N08130 2012 11 WP MM NOT_NAMED 2012-02-18 15:00:00 TS 10.1034 112.660 main 422 402 P_PP__________ WP012012 9.93012 112.938 DB 20 1007 -3 10.5725 112.500 1 31 1004 9.80750 112.543 TD 30 1004 3 276
2012046N08130 2012 11 WP MM NOT_NAMED 2012-02-18 18:00:00 TS 10.1000 112.500 main 402 402 O_OO__________ jtwc_wp WP012012 9.90000 112.600 DB 20 1007 -3 10.6000 112.400 1 31 1004 9.80000 112.500 TD 30 1004 2 234
2012046N08130 2012 11 WP MM NOT_NAMED 2012-02-18 21:00:00 TS 9.99099 112.506 main 407 407 P_PP__________ WP012012 9.65797 112.719 DB 22 1005 -3 10.5725 112.292 1 31 1004 9.74249 112.507 TD 30 1004 2 165
2012046N08130 2012 11 WP MM NOT_NAMED 2012-02-19 00:00:00 TS 9.93333 112.533 main 413 407 O_OO__________ jtwc_wp WP012012 9.60000 112.900 TD 25 1004 -1 1008 110 40 10.5000 112.200 1 31 1004 9.70000 112.500 TD 30 1004 1 0
2012046N08130 2012 11 WP MM NOT_NAMED 2012-02-19 03:00:00 TS 10.0500 112.481 main 402 368 V_PP__________ jtwc_wp WP012012 10.0000 112.900 TD 25 1004 -1 1008 155 40 10.4075 112.135 1 31 1004 9.74251 112.408 TD 30 1004 4 308
2012046N08130 2012 11 WP MM NOT_NAMED 2012-02-19 06:00:00 TS 10.1667 112.233 main 368 364 O_OO__________ jtwc_wp WP012012 10.4000 112.300 TD 25 1004 -1 1008 200 40 10.3000 112.100 1 31 1004 9.80000 112.300 TD 30 1004 4 273
2012046N08130 2012 11 WP MM NOT_NAMED 2012-02-19 09:00:00 TS 10.0684 112.106 main 364 364 P_PP__________ WP012012 10.1828 111.977 TD 22 1005 -1 1008 162 42 10.2075 112.100 1 31 1004 9.81499 112.243 TD 30 1003 3 208
2012046N08130 2012 11 WP MM NOT_NAMED 2012-02-19 12:00:00 TS 9.86667 112.067 main 375 375 O_OO__________ jtwc_wp WP012012 9.70000 111.900 DB 20 1007 -3 1008 125 45 10.1000 112.100 1 31 1004 9.80000 112.200 TD 30 1002 3 188
2012046N08130 2012 11 WP MM NOT_NAMED 2012-02-19 15:00:00 TS 9.73333 112.069 main 388 388 P_PP__________ WP012012 9.47001 111.993 DB 20 1007 -3 1008 125 42 9.96500 112.058 1 31 1004 9.76499 112.158 TD 30 1002 3 0
2012046N08130 2012 11 WP MM NOT_NAMED 2012-02-19 18:00:00 TS 9.60000 112.067 main 394 385 O_OO__________ jtwc_wp WP012012 9.30000 112.100 DB 20 1007 -3 1008 125 40 9.80000 112.000 1 31 1004 9.70000 112.100 TD 30 1002 3 195
2012046N08130 2012 11 WP MM NOT_NAMED 2012-02-19 21:00:00 TS 9.45250 111.989 main 391 388 P_PP__________ WP012012 9.13501 111.987 DB 20 1007 -3 1008 125 40 9.58499 111.965 1 31 1004 9.63749 112.015 TD 30 1003 4 213
2012046N08130 2012 11 WP MM NOT_NAMED 2012-02-20 00:00:00 TS 9.30000 111.867 main 395 384 O_OO__________ jtwc_wp WP012012 9.00000 111.800 DB 20 1007 -3 1008 125 40 9.40000 111.900 1 31 1004 9.50000 111.900 TD 30 1004 4 221
2012046N08130 2012 11 WP MM NOT_NAMED 2012-02-20 03:00:00 TS 9.12160 111.695 main 392 383 P_PP__________ WP012012 8.85229 111.578 DB 20 1006 -3 1007 130 40 9.32002 111.758 1 31 1004 9.19251 111.750 TD 30 1004 4 224
2012046N08130 2012 11 WP MM NOT_NAMED 2012-02-20 06:00:00 TS 9.00000 111.567 main 391 391 O_OO__________ jtwc_wp WP012012 8.80000 111.500 DB 20 1006 -3 1007 135 40 9.30000 111.600 1 31 1004 8.90000 111.600 TD 30 1004 2 227
2012046N08130 2012 11 WP MM NOT_NAMED 2012-02-20 09:00:00 TS 9.00416 111.567 main 391 368 V_PP__________ jtwc_wp WP012012 8.90000 111.700 TD 20 1007 -1 1007 130 40 9.29249 111.493 1 31 1004 8.81997 111.508 TD 30 1004 2 315
2012046N08130 2012 11 WP MM NOT_NAMED 2012-02-20 12:00:00 TS 9.12727 111.436 main 368 360 O_OO__________ jtwc_wp WP012012 9.20000 111.500 DB 20 1007 -3 1007 125 40 9.30000 111.400 1 31 1004 8.80000 111.400 TD 30 1004 3 295
2012046N08130 2012 11 WP MM NOT_NAMED 2012-02-20 15:00:00 TS 9.11811 111.317 main 360 352 P_PP__________ WP012012 9.13401 111.374 DB 20 1007 -3 9.29999 111.308 1 31 1004 8.72254 111.222 TD 30 1004 3 264
2012046N08130 2012 11 WP MM NOT_NAMED 2012-02-20 18:00:00 TS 9.10000 111.175 main 352 329 O_OO__________ jtwc_wp WP012012 9.00000 111.200 DB 20 1007 -3 9.30000 111.200 1 31 1004 8.60000 111.000 TD 30 1005 3 292
2012046N08130 2012 11 WP MM NOT_NAMED 2012-02-20 21:00:00 TS 9.24542 111.005 main 329 306 P_P___________ WP012012 9.15132 110.855 DB 20 1007 -3 9.29246 111.080 1 31 1004 TD 5 302
2012046N08130 2012 11 WP MM NOT_NAMED 2012-02-21 00:00:00 TS 9.35000 110.775 main 298 291 O_O___________ jtwc_wp WP012012 9.50000 110.400 TD 20 1007 -1 9.30000 110.900 1 31 1004 4 284
2012046N08130 2012 11 WP MM NOT_NAMED 2012-02-21 03:00:00 TS 9.34009 110.628 main 293 265 __P___________ WP012012 TD -1 9.34009 110.628 1 28 1005 5 276
2012046N08130 2012 11 WP MM NOT_NAMED 2012-02-21 06:00:00 TS 9.40000 110.300 main 265 __O___________ -1 9.40000 110.300 1 25 1006 7 281

デジタル台風データ・検索

IBTrACS Databaseについて

本データベースは、米国NOAAが公開する1842年以降の世界の熱帯低気圧のベストトラックデータアーカイブInternational Best Track Archive for Climate Stewardship (IBTrACS)を、ウェブで閲覧しやすい形式に変換したものです。

最終更新日:2021-12-03